sensor_id;sensor_type;location;lat;lon;timestamp;P1;durP1;ratioP1;P2;durP2;ratioP2
40058;SDS011;25763;49.972;8.568;2023-11-22T00:02:24;36.05;;;34.20;;
40058;SDS011;25763;49.972;8.568;2023-11-22T00:04:53;37.33;;;35.42;;
40058;SDS011;25763;49.972;8.568;2023-11-22T00:07:19;47.10;;;41.65;;
40058;SDS011;25763;49.972;8.568;2023-11-22T00:09:44;45.83;;;43.50;;
40058;SDS011;25763;49.972;8.568;2023-11-22T00:12:11;42.75;;;40.58;;
40058;SDS011;25763;49.972;8.568;2023-11-22T00:14:37;43.33;;;40.72;;
40058;SDS011;25763;49.972;8.568;2023-11-22T00:17:02;41.40;;;39.15;;
40058;SDS011;25763;49.972;8.568;2023-11-22T00:19:27;36.30;;;34.42;;
40058;SDS011;25763;49.972;8.568;2023-11-22T00:21:53;38.70;;;36.70;;
40058;SDS011;25763;49.972;8.568;2023-11-22T00:24:18;37.67;;;35.75;;
40058;SDS011;25763;49.972;8.568;2023-11-22T00:26:43;37.95;;;36.00;;
40058;SDS011;25763;49.972;8.568;2023-11-22T00:29:09;44.58;;;42.30;;
40058;SDS011;25763;49.972;8.568;2023-11-22T00:31:34;45.40;;;43.10;;
40058;SDS011;25763;49.972;8.568;2023-11-22T00:33:59;42.28;;;40.13;;
40058;SDS011;25763;49.972;8.568;2023-11-22T00:36:25;45.20;;;42.90;;
40058;SDS011;25763;49.972;8.568;2023-11-22T00:38:50;47.05;;;44.65;;
40058;SDS011;25763;49.972;8.568;2023-11-22T00:41:16;45.17;;;42.85;;
40058;SDS011;25763;49.972;8.568;2023-11-22T00:43:42;44.80;;;42.53;;
40058;SDS011;25763;49.972;8.568;2023-11-22T00:46:07;45.90;;;43.55;;
40058;SDS011;25763;49.972;8.568;2023-11-22T00:48:32;47.10;;;44.70;;
40058;SDS011;25763;49.972;8.568;2023-11-22T00:50:58;47.13;;;44.75;;
40058;SDS011;25763;49.972;8.568;2023-11-22T00:53:23;45.30;;;43.00;;
40058;SDS011;25763;49.972;8.568;2023-11-22T00:55:49;44.58;;;42.28;;
40058;SDS011;25763;49.972;8.568;2023-11-22T00:58:14;43.72;;;41.53;;
40058;SDS011;25763;49.972;8.568;2023-11-22T01:00:40;42.58;;;40.25;;
40058;SDS011;25763;49.972;8.568;2023-11-22T01:03:05;39.95;;;37.88;;
40058;SDS011;25763;49.972;8.568;2023-11-22T01:05:34;40.13;;;37.78;;
40058;SDS011;25763;49.972;8.568;2023-11-22T01:07:59;40.88;;;38.75;;
40058;SDS011;25763;49.972;8.568;2023-11-22T01:10:24;37.60;;;35.63;;
40058;SDS011;25763;49.972;8.568;2023-11-22T01:12:50;35.83;;;33.95;;
40058;SDS011;25763;49.972;8.568;2023-11-22T01:15:15;35.78;;;33.85;;
40058;SDS011;25763;49.972;8.568;2023-11-22T01:17:41;34.95;;;33.13;;
40058;SDS011;25763;49.972;8.568;2023-11-22T01:20:07;32.75;;;31.05;;
40058;SDS011;25763;49.972;8.568;2023-11-22T01:22:36;32.00;;;30.33;;
40058;SDS011;25763;49.972;8.568;2023-11-22T01:25:03;30.40;;;28.77;;
40058;SDS011;25763;49.972;8.568;2023-11-22T01:27:29;31.15;;;29.52;;
40058;SDS011;25763;49.972;8.568;2023-11-22T01:29:55;31.73;;;30.08;;
40058;SDS011;25763;49.972;8.568;2023-11-22T01:32:20;30.50;;;28.90;;
40058;SDS011;25763;49.972;8.568;2023-11-22T01:34:46;30.85;;;29.23;;
40058;SDS011;25763;49.972;8.568;2023-11-22T01:37:11;33.35;;;31.55;;
40058;SDS011;25763;49.972;8.568;2023-11-22T01:39:39;31.05;;;29.45;;
40058;SDS011;25763;49.972;8.568;2023-11-22T01:42:06;32.08;;;30.38;;
40058;SDS011;25763;49.972;8.568;2023-11-22T01:44:31;33.35;;;31.65;;
40058;SDS011;25763;49.972;8.568;2023-11-22T01:46:57;31.85;;;30.17;;
40058;SDS011;25763;49.972;8.568;2023-11-22T01:49:22;35.25;;;33.38;;
40058;SDS011;25763;49.972;8.568;2023-11-22T01:51:48;35.63;;;33.80;;
40058;SDS011;25763;49.972;8.568;2023-11-22T01:54:14;34.50;;;32.25;;
40058;SDS011;25763;49.972;8.568;2023-11-22T01:56:42;33.40;;;31.60;;
40058;SDS011;25763;49.972;8.568;2023-11-22T01:59:09;32.97;;;31.20;;
40058;SDS011;25763;49.972;8.568;2023-11-22T02:01:34;31.13;;;29.42;;
40058;SDS011;25763;49.972;8.568;2023-11-22T02:04:00;31.13;;;29.42;;
40058;SDS011;25763;49.972;8.568;2023-11-22T02:06:26;31.88;;;29.88;;
40058;SDS011;25763;49.972;8.568;2023-11-22T02:08:51;31.95;;;30.25;;
40058;SDS011;25763;49.972;8.568;2023-11-22T02:11:17;32.70;;;30.88;;
40058;SDS011;25763;49.972;8.568;2023-11-22T02:13:50;33.38;;;31.58;;
40058;SDS011;25763;49.972;8.568;2023-11-22T02:16:16;31.30;;;29.63;;
40058;SDS011;25763;49.972;8.568;2023-11-22T02:18:43;32.53;;;30.77;;
40058;SDS011;25763;49.972;8.568;2023-11-22T02:21:10;33.50;;;31.60;;
40058;SDS011;25763;49.972;8.568;2023-11-22T02:23:36;32.88;;;31.10;;
40058;SDS011;25763;49.972;8.568;2023-11-22T02:26:01;31.65;;;29.92;;
40058;SDS011;25763;49.972;8.568;2023-11-22T02:28:27;30.33;;;28.67;;
40058;SDS011;25763;49.972;8.568;2023-11-22T02:30:52;30.17;;;28.48;;
40058;SDS011;25763;49.972;8.568;2023-11-22T02:33:19;30.58;;;28.85;;
40058;SDS011;25763;49.972;8.568;2023-11-22T02:35:45;29.38;;;27.77;;
40058;SDS011;25763;49.972;8.568;2023-11-22T02:38:10;28.75;;;27.20;;
40058;SDS011;25763;49.972;8.568;2023-11-22T02:40:35;28.67;;;27.17;;
40058;SDS011;25763;49.972;8.568;2023-11-22T02:43:01;30.70;;;29.10;;
40058;SDS011;25763;49.972;8.568;2023-11-22T02:45:32;29.55;;;27.95;;
40058;SDS011;25763;49.972;8.568;2023-11-22T02:47:58;28.98;;;27.38;;
40058;SDS011;25763;49.972;8.568;2023-11-22T02:50:24;30.80;;;29.13;;
40058;SDS011;25763;49.972;8.568;2023-11-22T02:52:50;29.83;;;28.23;;
40058;SDS011;25763;49.972;8.568;2023-11-22T02:55:15;29.45;;;27.90;;
40058;SDS011;25763;49.972;8.568;2023-11-22T02:57:41;29.75;;;28.15;;
40058;SDS011;25763;49.972;8.568;2023-11-22T03:00:07;29.75;;;28.15;;
40058;SDS011;25763;49.972;8.568;2023-11-22T03:02:34;29.48;;;27.92;;
40058;SDS011;25763;49.972;8.568;2023-11-22T03:04:59;29.95;;;28.35;;
40058;SDS011;25763;49.972;8.568;2023-11-22T03:07:25;30.38;;;28.77;;
40058;SDS011;25763;49.972;8.568;2023-11-22T03:09:51;29.90;;;28.30;;
40058;SDS011;25763;49.972;8.568;2023-11-22T03:12:18;31.38;;;29.67;;
40058;SDS011;25763;49.972;8.568;2023-11-22T03:14:45;28.33;;;26.77;;
40058;SDS011;25763;49.972;8.568;2023-11-22T03:17:10;30.80;;;29.20;;
40058;SDS011;25763;49.972;8.568;2023-11-22T03:19:36;29.77;;;28.13;;
40058;SDS011;25763;49.972;8.568;2023-11-22T03:22:01;29.02;;;27.33;;
40058;SDS011;25763;49.972;8.568;2023-11-22T03:24:29;27.00;;;25.60;;
40058;SDS011;25763;49.972;8.568;2023-11-22T03:26:55;28.40;;;26.90;;
40058;SDS011;25763;49.972;8.568;2023-11-22T03:29:24;28.95;;;27.27;;
40058;SDS011;25763;49.972;8.568;2023-11-22T03:31:50;29.70;;;28.10;;
40058;SDS011;25763;49.972;8.568;2023-11-22T03:34:16;29.27;;;27.77;;
40058;SDS011;25763;49.972;8.568;2023-11-22T03:36:42;31.58;;;29.88;;
40058;SDS011;25763;49.972;8.568;2023-11-22T03:39:07;33.28;;;31.58;;
40058;SDS011;25763;49.972;8.568;2023-11-22T03:41:33;30.55;;;28.88;;
40058;SDS011;25763;49.972;8.568;2023-11-22T03:43:58;27.98;;;26.52;;
40058;SDS011;25763;49.972;8.568;2023-11-22T03:46:24;27.27;;;25.85;;
40058;SDS011;25763;49.972;8.568;2023-11-22T03:48:49;29.20;;;27.60;;
40058;SDS011;25763;49.972;8.568;2023-11-22T03:51:14;27.60;;;26.15;;
40058;SDS011;25763;49.972;8.568;2023-11-22T03:53:41;28.45;;;26.90;;
40058;SDS011;25763;49.972;8.568;2023-11-22T03:56:06;28.02;;;26.48;;
40058;SDS011;25763;49.972;8.568;2023-11-22T03:58:31;28.23;;;26.70;;
40058;SDS011;25763;49.972;8.568;2023-11-22T04:00:57;26.67;;;25.25;;
40058;SDS011;25763;49.972;8.568;2023-11-22T04:03:23;27.95;;;26.45;;
40058;SDS011;25763;49.972;8.568;2023-11-22T04:05:49;27.85;;;26.40;;
40058;SDS011;25763;49.972;8.568;2023-11-22T04:08:14;28.45;;;26.85;;
40058;SDS011;25763;49.972;8.568;2023-11-22T04:10:40;28.42;;;26.88;;
40058;SDS011;25763;49.972;8.568;2023-11-22T04:13:05;28.60;;;26.90;;
40058;SDS011;25763;49.972;8.568;2023-11-22T04:15:31;26.10;;;24.70;;
40058;SDS011;25763;49.972;8.568;2023-11-22T04:17:57;26.10;;;24.70;;
40058;SDS011;25763;49.972;8.568;2023-11-22T04:20:22;27.58;;;26.05;;
40058;SDS011;25763;49.972;8.568;2023-11-22T04:22:47;27.35;;;25.83;;
40058;SDS011;25763;49.972;8.568;2023-11-22T04:25:13;28.60;;;27.00;;
40058;SDS011;25763;49.972;8.568;2023-11-22T04:27:39;28.40;;;26.70;;
40058;SDS011;25763;49.972;8.568;2023-11-22T04:30:08;28.98;;;27.38;;
40058;SDS011;25763;49.972;8.568;2023-11-22T04:32:38;29.70;;;28.10;;
40058;SDS011;25763;49.972;8.568;2023-11-22T04:35:04;28.83;;;27.27;;
40058;SDS011;25763;49.972;8.568;2023-11-22T04:37:30;29.88;;;28.27;;
40058;SDS011;25763;49.972;8.568;2023-11-22T04:39:57;30.73;;;29.13;;
40058;SDS011;25763;49.972;8.568;2023-11-22T04:42:23;31.73;;;30.02;;
40058;SDS011;25763;49.972;8.568;2023-11-22T04:44:48;31.77;;;29.98;;
40058;SDS011;25763;49.972;8.568;2023-11-22T04:47:14;32.55;;;30.85;;
40058;SDS011;25763;49.972;8.568;2023-11-22T04:49:39;32.42;;;30.73;;
40058;SDS011;25763;49.972;8.568;2023-11-22T04:52:05;32.67;;;30.88;;
40058;SDS011;25763;49.972;8.568;2023-11-22T04:54:30;33.60;;;31.75;;
40058;SDS011;25763;49.972;8.568;2023-11-22T04:56:56;33.13;;;31.33;;
40058;SDS011;25763;49.972;8.568;2023-11-22T04:59:22;32.40;;;30.70;;
40058;SDS011;25763;49.972;8.568;2023-11-22T05:01:47;33.42;;;31.73;;
40058;SDS011;25763;49.972;8.568;2023-11-22T05:04:14;32.17;;;30.48;;
40058;SDS011;25763;49.972;8.568;2023-11-22T05:06:39;32.38;;;30.67;;
40058;SDS011;25763;49.972;8.568;2023-11-22T05:09:05;32.15;;;30.45;;
40058;SDS011;25763;49.972;8.568;2023-11-22T05:11:30;33.50;;;31.70;;
40058;SDS011;25763;49.972;8.568;2023-11-22T05:13:56;32.63;;;30.92;;
40058;SDS011;25763;49.972;8.568;2023-11-22T05:16:21;31.80;;;30.13;;
40058;SDS011;25763;49.972;8.568;2023-11-22T05:18:48;32.20;;;30.50;;
40058;SDS011;25763;49.972;8.568;2023-11-22T05:21:15;31.77;;;30.08;;
40058;SDS011;25763;49.972;8.568;2023-11-22T05:23:40;30.77;;;29.13;;
40058;SDS011;25763;49.972;8.568;2023-11-22T05:26:05;32.25;;;30.35;;
40058;SDS011;25763;49.972;8.568;2023-11-22T05:28:31;31.92;;;30.23;;
40058;SDS011;25763;49.972;8.568;2023-11-22T05:30:56;30.88;;;29.27;;
40058;SDS011;25763;49.972;8.568;2023-11-22T05:33:22;30.98;;;29.33;;
40058;SDS011;25763;49.972;8.568;2023-11-22T05:35:48;32.03;;;30.35;;
40058;SDS011;25763;49.972;8.568;2023-11-22T05:38:14;31.42;;;29.83;;
40058;SDS011;25763;49.972;8.568;2023-11-22T05:40:39;28.58;;;27.08;;
40058;SDS011;25763;49.972;8.568;2023-11-22T05:43:06;29.80;;;28.08;;
40058;SDS011;25763;49.972;8.568;2023-11-22T05:45:33;27.90;;;26.40;;
40058;SDS011;25763;49.972;8.568;2023-11-22T05:47:59;28.52;;;27.02;;
40058;SDS011;25763;49.972;8.568;2023-11-22T05:50:25;28.10;;;26.60;;
40058;SDS011;25763;49.972;8.568;2023-11-22T05:52:50;28.15;;;26.65;;
40058;SDS011;25763;49.972;8.568;2023-11-22T05:55:16;29.25;;;27.70;;
40058;SDS011;25763;49.972;8.568;2023-11-22T05:57:43;26.90;;;25.38;;
40058;SDS011;25763;49.972;8.568;2023-11-22T06:00:09;26.52;;;25.13;;
40058;SDS011;25763;49.972;8.568;2023-11-22T06:02:35;26.90;;;25.50;;
40058;SDS011;25763;49.972;8.568;2023-11-22T06:05:02;26.52;;;25.05;;
40058;SDS011;25763;49.972;8.568;2023-11-22T06:07:28;25.42;;;24.08;;
40058;SDS011;25763;49.972;8.568;2023-11-22T06:09:54;25.02;;;23.63;;
40058;SDS011;25763;49.972;8.568;2023-11-22T06:12:20;25.60;;;24.23;;
40058;SDS011;25763;49.972;8.568;2023-11-22T06:14:45;26.23;;;24.83;;
40058;SDS011;25763;49.972;8.568;2023-11-22T06:17:11;25.15;;;23.75;;
40058;SDS011;25763;49.972;8.568;2023-11-22T06:19:37;24.27;;;22.98;;
40058;SDS011;25763;49.972;8.568;2023-11-22T06:22:03;25.23;;;23.75;;
40058;SDS011;25763;49.972;8.568;2023-11-22T06:24:28;26.30;;;24.80;;
40058;SDS011;25763;49.972;8.568;2023-11-22T06:26:54;25.27;;;23.92;;
40058;SDS011;25763;49.972;8.568;2023-11-22T06:29:19;24.65;;;23.10;;
40058;SDS011;25763;49.972;8.568;2023-11-22T06:31:45;25.20;;;23.80;;
40058;SDS011;25763;49.972;8.568;2023-11-22T06:34:11;25.00;;;23.65;;
40058;SDS011;25763;49.972;8.568;2023-11-22T06:36:37;26.35;;;24.95;;
40058;SDS011;25763;49.972;8.568;2023-11-22T06:39:02;23.90;;;22.60;;
40058;SDS011;25763;49.972;8.568;2023-11-22T06:41:30;25.75;;;24.35;;
40058;SDS011;25763;49.972;8.568;2023-11-22T06:43:55;25.27;;;23.88;;
40058;SDS011;25763;49.972;8.568;2023-11-22T06:46:20;24.27;;;22.98;;
40058;SDS011;25763;49.972;8.568;2023-11-22T06:48:48;26.42;;;24.95;;
40058;SDS011;25763;49.972;8.568;2023-11-22T06:51:14;25.50;;;24.10;;
40058;SDS011;25763;49.972;8.568;2023-11-22T06:53:40;23.98;;;22.67;;
40058;SDS011;25763;49.972;8.568;2023-11-22T06:56:05;24.08;;;22.77;;
40058;SDS011;25763;49.972;8.568;2023-11-22T06:58:31;25.08;;;23.67;;
40058;SDS011;25763;49.972;8.568;2023-11-22T07:00:56;24.25;;;22.95;;
40058;SDS011;25763;49.972;8.568;2023-11-22T07:03:22;25.23;;;23.83;;
40058;SDS011;25763;49.972;8.568;2023-11-22T07:05:47;24.50;;;23.10;;
40058;SDS011;25763;49.972;8.568;2023-11-22T07:08:13;24.50;;;23.08;;
40058;SDS011;25763;49.972;8.568;2023-11-22T07:10:41;24.25;;;22.85;;
40058;SDS011;25763;49.972;8.568;2023-11-22T07:13:07;23.25;;;22.00;;
40058;SDS011;25763;49.972;8.568;2023-11-22T07:15:32;24.33;;;23.02;;
40058;SDS011;25763;49.972;8.568;2023-11-22T07:17:57;24.73;;;23.33;;
40058;SDS011;25763;49.972;8.568;2023-11-22T07:20:23;24.98;;;23.58;;
40058;SDS011;25763;49.972;8.568;2023-11-22T07:22:48;23.88;;;22.58;;
40058;SDS011;25763;49.972;8.568;2023-11-22T07:25:20;24.48;;;23.15;;
40058;SDS011;25763;49.972;8.568;2023-11-22T07:27:46;24.70;;;23.40;;
40058;SDS011;25763;49.972;8.568;2023-11-22T07:30:15;24.70;;;23.30;;
40058;SDS011;25763;49.972;8.568;2023-11-22T07:32:41;24.25;;;22.95;;
40058;SDS011;25763;49.972;8.568;2023-11-22T07:35:07;26.55;;;24.95;;
40058;SDS011;25763;49.972;8.568;2023-11-22T07:37:34;25.00;;;23.67;;
40058;SDS011;25763;49.972;8.568;2023-11-22T07:40:01;26.10;;;24.58;;
40058;SDS011;25763;49.972;8.568;2023-11-22T07:42:28;24.48;;;23.08;;
40058;SDS011;25763;49.972;8.568;2023-11-22T07:44:54;25.17;;;23.88;;
40058;SDS011;25763;49.972;8.568;2023-11-22T07:47:21;25.05;;;23.70;;
40058;SDS011;25763;49.972;8.568;2023-11-22T07:49:48;28.67;;;26.13;;
40058;SDS011;25763;49.972;8.568;2023-11-22T07:52:13;27.95;;;26.48;;
40058;SDS011;25763;49.972;8.568;2023-11-22T07:54:39;30.35;;;28.55;;
40058;SDS011;25763;49.972;8.568;2023-11-22T07:57:05;31.10;;;29.35;;
40058;SDS011;25763;49.972;8.568;2023-11-22T07:59:32;29.67;;;28.10;;
40058;SDS011;25763;49.972;8.568;2023-11-22T08:01:58;31.38;;;29.65;;
40058;SDS011;25763;49.972;8.568;2023-11-22T08:04:23;29.25;;;27.73;;
40058;SDS011;25763;49.972;8.568;2023-11-22T08:06:49;29.38;;;27.83;;
40058;SDS011;25763;49.972;8.568;2023-11-22T08:09:16;30.20;;;28.60;;
40058;SDS011;25763;49.972;8.568;2023-11-22T08:11:42;30.98;;;29.33;;
40058;SDS011;25763;49.972;8.568;2023-11-22T08:14:08;31.42;;;29.70;;
40058;SDS011;25763;49.972;8.568;2023-11-22T08:16:33;32.05;;;30.27;;
40058;SDS011;25763;49.972;8.568;2023-11-22T08:19:03;32.03;;;30.33;;
40058;SDS011;25763;49.972;8.568;2023-11-22T08:21:30;31.85;;;30.15;;
40058;SDS011;25763;49.972;8.568;2023-11-22T08:23:55;30.77;;;29.05;;
40058;SDS011;25763;49.972;8.568;2023-11-22T08:26:21;31.75;;;29.85;;
40058;SDS011;25763;49.972;8.568;2023-11-22T08:28:46;32.53;;;30.77;;
40058;SDS011;25763;49.972;8.568;2023-11-22T08:31:12;31.70;;;30.00;;
40058;SDS011;25763;49.972;8.568;2023-11-22T08:33:37;31.00;;;29.35;;
40058;SDS011;25763;49.972;8.568;2023-11-22T08:36:07;32.08;;;30.40;;
40058;SDS011;25763;49.972;8.568;2023-11-22T08:38:33;34.22;;;32.47;;
40058;SDS011;25763;49.972;8.568;2023-11-22T08:41:03;33.20;;;31.48;;
40058;SDS011;25763;49.972;8.568;2023-11-22T08:43:30;34.55;;;32.78;;
40058;SDS011;25763;49.972;8.568;2023-11-22T08:45:57;33.53;;;31.75;;
40058;SDS011;25763;49.972;8.568;2023-11-22T08:48:26;34.10;;;32.30;;
40058;SDS011;25763;49.972;8.568;2023-11-22T08:50:51;37.03;;;35.03;;
40058;SDS011;25763;49.972;8.568;2023-11-22T08:53:19;36.00;;;34.03;;
40058;SDS011;25763;49.972;8.568;2023-11-22T08:55:45;35.55;;;33.50;;
40058;SDS011;25763;49.972;8.568;2023-11-22T08:58:10;34.92;;;32.97;;
40058;SDS011;25763;49.972;8.568;2023-11-22T09:00:36;32.08;;;30.38;;
40058;SDS011;25763;49.972;8.568;2023-11-22T09:03:01;33.53;;;31.73;;
40058;SDS011;25763;49.972;8.568;2023-11-22T09:05:28;32.72;;;30.98;;
40058;SDS011;25763;49.972;8.568;2023-11-22T09:07:54;36.45;;;34.55;;
40058;SDS011;25763;49.972;8.568;2023-11-22T09:10:20;36.95;;;35.05;;
40058;SDS011;25763;49.972;8.568;2023-11-22T09:12:47;33.67;;;31.95;;
40058;SDS011;25763;49.972;8.568;2023-11-22T09:15:13;31.27;;;29.67;;
40058;SDS011;25763;49.972;8.568;2023-11-22T09:17:42;30.02;;;28.42;;
40058;SDS011;25763;49.972;8.568;2023-11-22T09:22:47;32.85;;;31.15;;
40058;SDS011;25763;49.972;8.568;2023-11-22T09:25:21;30.67;;;29.08;;
40058;SDS011;25763;49.972;8.568;2023-11-22T09:27:48;34.58;;;32.78;;
40058;SDS011;25763;49.972;8.568;2023-11-22T09:30:19;32.95;;;31.17;;
40058;SDS011;25763;49.972;8.568;2023-11-22T09:32:58;29.42;;;27.90;;
40058;SDS011;25763;49.972;8.568;2023-11-22T09:35:44;37.10;;;35.05;;
40058;SDS011;25763;49.972;8.568;2023-11-22T09:38:11;33.63;;;31.80;;
40058;SDS011;25763;49.972;8.568;2023-11-22T09:43:10;32.17;;;30.33;;
40058;SDS011;25763;49.972;8.568;2023-11-22T09:45:35;32.95;;;31.10;;
40058;SDS011;25763;49.972;8.568;2023-11-22T09:48:03;29.38;;;27.77;;
40058;SDS011;25763;49.972;8.568;2023-11-22T09:53:31;30.50;;;28.90;;
40058;SDS011;25763;49.972;8.568;2023-11-22T09:56:01;36.25;;;34.25;;
40058;SDS011;25763;49.972;8.568;2023-11-22T09:58:31;31.70;;;29.58;;
40058;SDS011;25763;49.972;8.568;2023-11-22T10:00:58;29.60;;;28.00;;
40058;SDS011;25763;49.972;8.568;2023-11-22T10:03:25;29.80;;;28.20;;
40058;SDS011;25763;49.972;8.568;2023-11-22T10:05:54;28.70;;;26.90;;
40058;SDS011;25763;49.972;8.568;2023-11-22T10:08:21;28.35;;;26.77;;
40058;SDS011;25763;49.972;8.568;2023-11-22T10:10:47;26.77;;;25.38;;
40058;SDS011;25763;49.972;8.568;2023-11-22T10:13:16;28.55;;;27.00;;
40058;SDS011;25763;49.972;8.568;2023-11-22T10:15:42;28.08;;;26.50;;
40058;SDS011;25763;49.972;8.568;2023-11-22T10:18:08;26.73;;;25.33;;
40058;SDS011;25763;49.972;8.568;2023-11-22T10:20:37;25.77;;;24.38;;
40058;SDS011;25763;49.972;8.568;2023-11-22T10:23:07;31.02;;;29.33;;
40058;SDS011;25763;49.972;8.568;2023-11-22T10:25:34;28.65;;;27.15;;
40058;SDS011;25763;49.972;8.568;2023-11-22T10:27:59;26.52;;;25.05;;
40058;SDS011;25763;49.972;8.568;2023-11-22T10:30:27;30.42;;;28.75;;
40058;SDS011;25763;49.972;8.568;2023-11-22T10:32:53;28.88;;;27.38;;
40058;SDS011;25763;49.972;8.568;2023-11-22T10:35:19;29.77;;;28.10;;
40058;SDS011;25763;49.972;8.568;2023-11-22T10:37:47;27.60;;;26.10;;
40058;SDS011;25763;49.972;8.568;2023-11-22T10:40:13;27.48;;;25.80;;
40058;SDS011;25763;49.972;8.568;2023-11-22T10:42:42;27.98;;;26.48;;
40058;SDS011;25763;49.972;8.568;2023-11-22T10:45:11;28.52;;;27.02;;
40058;SDS011;25763;49.972;8.568;2023-11-22T10:47:38;26.48;;;25.08;;
40058;SDS011;25763;49.972;8.568;2023-11-22T10:50:07;28.40;;;26.20;;
40058;SDS011;25763;49.972;8.568;2023-11-22T10:52:33;27.15;;;25.73;;
40058;SDS011;25763;49.972;8.568;2023-11-22T10:55:04;27.33;;;25.83;;
40058;SDS011;25763;49.972;8.568;2023-11-22T10:57:32;27.77;;;26.30;;
40058;SDS011;25763;49.972;8.568;2023-11-22T11:00:02;28.75;;;27.25;;
40058;SDS011;25763;49.972;8.568;2023-11-22T11:02:31;29.02;;;27.52;;
40058;SDS011;25763;49.972;8.568;2023-11-22T11:05:02;28.05;;;26.55;;
40058;SDS011;25763;49.972;8.568;2023-11-22T11:07:32;28.38;;;26.65;;
40058;SDS011;25763;49.972;8.568;2023-11-22T11:10:06;28.30;;;26.67;;
40058;SDS011;25763;49.972;8.568;2023-11-22T11:12:32;27.77;;;26.27;;
40058;SDS011;25763;49.972;8.568;2023-11-22T11:14:58;29.67;;;28.08;;
40058;SDS011;25763;49.972;8.568;2023-11-22T11:17:23;28.98;;;27.42;;
40058;SDS011;25763;49.972;8.568;2023-11-22T11:19:49;29.33;;;27.80;;
40058;SDS011;25763;49.972;8.568;2023-11-22T11:22:15;29.45;;;27.88;;
40058;SDS011;25763;49.972;8.568;2023-11-22T11:24:41;29.40;;;27.90;;
40058;SDS011;25763;49.972;8.568;2023-11-22T11:27:09;28.60;;;27.10;;
40058;SDS011;25763;49.972;8.568;2023-11-22T11:29:36;27.88;;;26.38;;
40058;SDS011;25763;49.972;8.568;2023-11-22T11:32:09;27.75;;;26.25;;
40058;SDS011;25763;49.972;8.568;2023-11-22T11:34:48;27.33;;;25.83;;
40058;SDS011;25763;49.972;8.568;2023-11-22T11:37:19;27.77;;;26.27;;
40058;SDS011;25763;49.972;8.568;2023-11-22T11:39:45;27.08;;;25.63;;
40058;SDS011;25763;49.972;8.568;2023-11-22T11:42:11;29.63;;;28.10;;
40058;SDS011;25763;49.972;8.568;2023-11-22T11:44:50;28.85;;;27.33;;
40058;SDS011;25763;49.972;8.568;2023-11-22T11:47:17;30.15;;;28.27;;
40058;SDS011;25763;49.972;8.568;2023-11-22T11:49:42;28.17;;;26.58;;
40058;SDS011;25763;49.972;8.568;2023-11-22T11:52:08;27.45;;;25.98;;
40058;SDS011;25763;49.972;8.568;2023-11-22T11:54:33;28.98;;;27.38;;
40058;SDS011;25763;49.972;8.568;2023-11-22T11:57:00;28.48;;;26.92;;
40058;SDS011;25763;49.972;8.568;2023-11-22T11:59:26;29.42;;;27.73;;
40058;SDS011;25763;49.972;8.568;2023-11-22T12:01:54;28.63;;;27.02;;
40058;SDS011;25763;49.972;8.568;2023-11-22T12:04:24;29.08;;;27.48;;
40058;SDS011;25763;49.972;8.568;2023-11-22T12:06:49;31.95;;;30.25;;
40058;SDS011;25763;49.972;8.568;2023-11-22T12:09:24;30.85;;;29.23;;
40058;SDS011;25763;49.972;8.568;2023-11-22T12:11:56;31.73;;;30.02;;
40058;SDS011;25763;49.972;8.568;2023-11-22T12:14:24;30.77;;;29.10;;
40058;SDS011;25763;49.972;8.568;2023-11-22T12:16:51;30.52;;;28.92;;
40058;SDS011;25763;49.972;8.568;2023-11-22T12:19:27;29.50;;;27.98;;
40058;SDS011;25763;49.972;8.568;2023-11-22T12:21:56;30.23;;;28.63;;
40058;SDS011;25763;49.972;8.568;2023-11-22T12:24:21;28.92;;;27.40;;
40058;SDS011;25763;49.972;8.568;2023-11-22T12:26:47;32.50;;;30.50;;
40058;SDS011;25763;49.972;8.568;2023-11-22T12:29:18;30.92;;;29.33;;
40058;SDS011;25763;49.972;8.568;2023-11-22T12:31:47;30.42;;;28.80;;
40058;SDS011;25763;49.972;8.568;2023-11-22T12:34:16;31.58;;;29.80;;
40058;SDS011;25763;49.972;8.568;2023-11-22T12:36:42;31.85;;;30.15;;
40058;SDS011;25763;49.972;8.568;2023-11-22T12:39:08;30.08;;;28.48;;
40058;SDS011;25763;49.972;8.568;2023-11-22T12:41:42;32.25;;;30.55;;
40058;SDS011;25763;49.972;8.568;2023-11-22T12:44:08;30.00;;;28.40;;
40058;SDS011;25763;49.972;8.568;2023-11-22T12:51:52;30.15;;;28.55;;
40058;SDS011;25763;49.972;8.568;2023-11-22T12:54:18;30.00;;;28.40;;
40058;SDS011;25763;49.972;8.568;2023-11-22T12:56:48;31.42;;;29.73;;
40058;SDS011;25763;49.972;8.568;2023-11-22T12:59:23;30.73;;;29.13;;
40058;SDS011;25763;49.972;8.568;2023-11-22T13:01:49;30.60;;;28.95;;
40058;SDS011;25763;49.972;8.568;2023-11-22T13:04:17;30.15;;;28.55;;
40058;SDS011;25763;49.972;8.568;2023-11-22T13:06:43;31.25;;;29.55;;
40058;SDS011;25763;49.972;8.568;2023-11-22T13:09:09;29.98;;;28.38;;
40058;SDS011;25763;49.972;8.568;2023-11-22T13:11:40;32.08;;;30.38;;
40058;SDS011;25763;49.972;8.568;2023-11-22T13:14:07;31.50;;;29.88;;
40058;SDS011;25763;49.972;8.568;2023-11-22T13:16:33;29.90;;;28.33;;
40058;SDS011;25763;49.972;8.568;2023-11-22T13:19:00;34.40;;;32.40;;
40058;SDS011;25763;49.972;8.568;2023-11-22T13:21:25;29.75;;;28.15;;
40058;SDS011;25763;49.972;8.568;2023-11-22T13:23:51;30.30;;;28.70;;
40058;SDS011;25763;49.972;8.568;2023-11-22T13:26:17;30.50;;;28.90;;
40058;SDS011;25763;49.972;8.568;2023-11-22T13:28:42;30.17;;;28.58;;
40058;SDS011;25763;49.972;8.568;2023-11-22T13:31:08;30.88;;;29.17;;
40058;SDS011;25763;49.972;8.568;2023-11-22T13:33:34;31.17;;;29.55;;
40058;SDS011;25763;49.972;8.568;2023-11-22T13:36:00;30.48;;;28.88;;
40058;SDS011;25763;49.972;8.568;2023-11-22T13:38:25;30.05;;;28.45;;
40058;SDS011;25763;49.972;8.568;2023-11-22T13:40:51;32.35;;;30.65;;
40058;SDS011;25763;49.972;8.568;2023-11-22T13:43:17;29.02;;;27.50;;
40058;SDS011;25763;49.972;8.568;2023-11-22T13:45:45;28.52;;;27.02;;
40058;SDS011;25763;49.972;8.568;2023-11-22T13:48:10;30.90;;;29.25;;
40058;SDS011;25763;49.972;8.568;2023-11-22T13:50:36;31.75;;;30.08;;
40058;SDS011;25763;49.972;8.568;2023-11-22T13:53:02;34.28;;;32.47;;
40058;SDS011;25763;49.972;8.568;2023-11-22T13:55:29;36.95;;;34.92;;
40058;SDS011;25763;49.972;8.568;2023-11-22T13:57:57;35.35;;;33.55;;
40058;SDS011;25763;49.972;8.568;2023-11-22T14:00:24;35.03;;;33.22;;
40058;SDS011;25763;49.972;8.568;2023-11-22T14:02:58;34.55;;;32.75;;
40058;SDS011;25763;49.972;8.568;2023-11-22T14:05:31;37.22;;;35.28;;
40058;SDS011;25763;49.972;8.568;2023-11-22T14:07:58;35.67;;;33.85;;
40058;SDS011;25763;49.972;8.568;2023-11-22T14:10:23;34.67;;;32.88;;
40058;SDS011;25763;49.972;8.568;2023-11-22T14:12:49;33.40;;;31.67;;
40058;SDS011;25763;49.972;8.568;2023-11-22T14:15:15;32.80;;;31.00;;
40058;SDS011;25763;49.972;8.568;2023-11-22T14:17:41;32.53;;;30.83;;
40058;SDS011;25763;49.972;8.568;2023-11-22T14:20:10;30.42;;;28.80;;
40058;SDS011;25763;49.972;8.568;2023-11-22T14:22:37;30.98;;;29.38;;
40058;SDS011;25763;49.972;8.568;2023-11-22T14:25:04;29.63;;;28.02;;
40058;SDS011;25763;49.972;8.568;2023-11-22T14:27:32;30.85;;;29.25;;
40058;SDS011;25763;49.972;8.568;2023-11-22T14:29:59;29.92;;;28.33;;
40058;SDS011;25763;49.972;8.568;2023-11-22T14:32:24;31.17;;;29.52;;